createdAt,value
2019-02-03T00:04:44.304Z,12.25
2019-02-03T00:07:28.326Z,12.31
2019-02-03T00:10:18.912Z,12.32
2019-02-03T00:12:51.992Z,12.55
2019-02-03T00:15:42.631Z,12.81
2019-02-03T00:18:34.969Z,12.93
2019-02-03T00:21:06.194Z,12.82
2019-02-03T00:23:58.866Z,12.46
2019-02-03T00:29:32.566Z,12.86
2019-02-03T00:35:33.537Z,12.06
2019-02-03T00:38:24.222Z,12.14
2019-02-03T00:41:07.358Z,11.60
2019-02-03T00:44:11.087Z,12.14
2019-02-03T00:46:43.518Z,12.50
2019-02-03T00:49:45.487Z,12.40
2019-02-03T00:52:30.962Z,12.37
2019-02-03T00:55:21.592Z,12.65
2019-02-03T00:58:12.409Z,12.50
2019-02-03T01:03:46.043Z,10.96
2019-02-03T01:09:19.623Z,10.69
2019-02-03T01:12:10.213Z,11.19
2019-02-03T01:15:00.788Z,11.32
2019-02-03T01:20:55.648Z,11.74
2019-02-03T01:23:46.228Z,11.86
2019-02-03T01:26:36.825Z,11.75
2019-02-03T01:29:08.202Z,12.17
2019-02-03T01:31:59.226Z,12.27
2019-02-03T01:37:25.900Z,12.31
2019-02-03T01:40:17.715Z,11.88
2019-02-03T01:43:08.418Z,12.00
2019-02-03T01:46:00.699Z,12.17
2019-02-03T01:48:53.042Z,12.55
2019-02-03T01:51:43.643Z,12.09
2019-02-03T01:54:34.266Z,12.04
2019-02-03T01:57:24.859Z,12.11
2019-02-03T02:00:18.279Z,11.96
2019-02-03T02:05:54.794Z,9.60
2019-02-03T02:11:28.621Z,9.71
2019-02-03T02:14:19.176Z,10.71
2019-02-03T02:16:50.386Z,10.98
2019-02-03T02:19:32.522Z,11.50
2019-02-03T02:22:03.809Z,11.35
2019-02-03T02:24:54.411Z,11.67
2019-02-03T02:31:07.971Z,10.90
2019-02-03T02:33:58.577Z,10.44
2019-02-03T02:36:49.168Z,11.47
2019-02-03T02:39:39.727Z,11.84
2019-02-03T02:45:25.809Z,12.34
2019-02-03T02:50:42.686Z,12.63
2019-02-03T02:53:25.876Z,12.64
2019-02-03T02:58:59.660Z,12.48
2019-02-03T03:01:50.341Z,12.02
2019-02-03T03:04:41.233Z,12.24
2019-02-03T03:07:31.914Z,12.47
2019-02-03T03:10:22.572Z,12.49
2019-02-03T03:15:58.150Z,11.71
2019-02-03T03:18:40.445Z,11.20
2019-02-03T03:35:34.320Z,10.19
2019-02-03T03:41:32.818Z,9.70
2019-02-03T03:52:48.638Z,9.82
2019-02-03T03:55:39.193Z,9.56
2019-02-03T03:58:29.735Z,9.52
2019-02-03T04:01:08.157Z,9.74
2019-02-03T04:03:58.727Z,9.59
2019-02-03T04:06:42.284Z,9.99
2019-02-03T04:09:13.532Z,9.57
2019-02-03T04:12:04.226Z,9.29
2019-02-03T04:18:16.785Z,9.43
2019-02-03T04:21:09.069Z,9.72
2019-02-03T04:26:43.423Z,9.80
2019-02-03T04:29:35.753Z,9.97
2019-02-03T04:32:26.330Z,10.06
2019-02-03T04:35:16.847Z,10.49
2019-02-03T04:38:26.585Z,9.88
2019-02-03T04:41:17.163Z,10.04
2019-02-03T04:44:07.719Z,10.32
2019-02-03T04:49:43.453Z,10.41
2019-02-03T04:53:12.389Z,10.28
2019-02-03T04:56:22.080Z,10.22
2019-02-03T05:04:40.603Z,11.09
2019-02-03T05:10:28.634Z,10.92
2019-02-03T05:15:45.681Z,9.68
2019-02-03T05:21:39.679Z,9.77
2019-02-03T05:27:16.589Z,8.68
2019-02-03T05:30:19.223Z,8.66
2019-02-03T05:35:35.005Z,8.67
2019-02-03T05:38:25.569Z,8.61
2019-02-03T05:43:59.728Z,8.48
2019-02-03T05:46:30.984Z,8.71
2019-02-03T05:49:32.631Z,8.66
2019-02-03T05:55:27.054Z,9.05
2019-02-03T06:06:46.242Z,8.52
2019-02-03T06:09:37.125Z,8.75
2019-02-03T06:17:46.955Z,8.80
2019-02-03T06:26:23.550Z,9.49
2019-02-03T06:31:57.365Z,8.90
2019-02-03T06:34:28.648Z,9.80
2019-02-03T06:37:11.554Z,10.13
2019-02-03T06:40:02.179Z,10.70
2019-02-03T06:51:26.381Z,11.64
2019-02-03T06:54:36.070Z,11.64
2019-02-03T07:00:24.250Z,11.07
2019-02-03T07:03:05.377Z,11.40
2019-02-03T07:06:11.050Z,11.35
2019-02-03T07:11:49.240Z,10.37
2019-02-03T07:14:42.681Z,10.68
2019-02-03T07:17:14.594Z,10.48
2019-02-03T07:25:16.003Z,10.75
2019-02-03T07:28:28.671Z,10.93
2019-02-03T07:31:38.349Z,10.78
2019-02-03T07:34:47.992Z,10.19
2019-02-03T07:41:05.226Z,8.95
2019-02-03T07:46:54.972Z,10.83
2019-02-03T07:49:27.877Z,7.25
2019-02-03T07:52:18.443Z,10.25
2019-02-03T07:55:20.887Z,11.09
2019-02-03T07:57:55.228Z,11.63
2019-02-03T08:00:56.854Z,11.72
2019-02-03T08:03:52.893Z,12.09
2019-02-03T08:06:37.487Z,11.39
2019-02-03T08:09:34.036Z,10.87
2019-02-03T08:12:06.093Z,11.00
2019-02-03T08:18:14.158Z,11.30
2019-02-03T08:24:09.272Z,12.32
2019-02-03T08:26:53.384Z,12.80
2019-02-03T08:33:02.494Z,13.43
2019-02-03T08:38:36.627Z,12.48
2019-02-03T08:41:27.197Z,11.95
2019-02-03T08:44:17.825Z,10.46
2019-02-03T08:49:54.938Z,10.82
2019-02-03T08:52:27.534Z,11.07
2019-02-03T08:55:29.432Z,10.79
2019-02-03T09:03:32.986Z,9.51
2019-02-03T09:06:23.770Z,9.25
2019-02-03T09:09:15.591Z,8.69
2019-02-03T09:14:56.617Z,8.50
2019-02-03T09:17:49.605Z,8.39
2019-02-03T09:20:39.613Z,8.43
2019-02-03T09:25:59.566Z,7.22
2019-02-03T09:28:51.757Z,7.01
2019-02-03T09:31:23.958Z,6.87
2019-02-03T09:34:54.777Z,6.85
2019-02-03T09:43:50.758Z,6.29
2019-02-03T09:46:41.480Z,6.14
2019-02-03T09:49:34.151Z,6.02
2019-02-03T09:52:36.887Z,6.00
2019-02-03T09:55:28.017Z,6.04
2019-02-03T10:01:01.883Z,6.05
2019-02-03T10:04:06.846Z,6.03
2019-02-03T10:06:46.860Z,6.01
2019-02-03T10:09:43.092Z,5.92
2019-02-03T10:12:29.542Z,6.02
2019-02-03T10:17:48.276Z,5.94
2019-02-03T10:20:53.314Z,5.03
2019-02-03T10:23:33.772Z,6.21
2019-02-03T10:29:31.200Z,6.11
2019-02-03T10:32:03.427Z,6.03
2019-02-03T10:34:54.173Z,6.09
2019-02-03T10:38:07.287Z,6.01
2019-02-03T10:40:56.925Z,6.12
2019-02-03T10:43:58.222Z,6.05
2019-02-03T10:49:34.319Z,6.25
2019-02-03T10:52:24.935Z,6.47
2019-02-03T11:00:49.201Z,6.54
2019-02-03T11:03:33.596Z,6.67
2019-02-03T11:09:49.793Z,6.68
2019-02-03T11:12:59.641Z,6.70
2019-02-03T11:18:35.179Z,6.74
2019-02-03T11:21:25.781Z,6.73
2019-02-03T11:24:16.356Z,6.87
2019-02-03T11:27:06.933Z,6.82
2019-02-03T11:32:44.317Z,6.93
2019-02-03T11:35:34.878Z,7.00
2019-02-03T11:38:25.453Z,7.02
2019-02-03T11:41:35.245Z,7.12
2019-02-03T11:44:27.143Z,7.14
2019-02-03T11:50:15.795Z,7.22
2019-02-03T11:56:04.587Z,7.16
2019-02-03T12:01:36.632Z,7.29
2019-02-03T12:04:40.119Z,7.33
2019-02-03T12:07:33.860Z,7.36
2019-02-03T12:10:26.243Z,7.43
2019-02-03T12:13:36.255Z,7.37
2019-02-03T12:16:32.431Z,7.38
2019-02-03T12:19:42.734Z,7.36
2019-02-03T12:23:04.137Z,7.29
2019-02-03T12:28:38.640Z,7.28
2019-02-03T12:40:31.424Z,7.28
2019-02-03T12:44:12.906Z,7.38
2019-02-03T12:46:45.740Z,7.23
2019-02-03T12:49:36.460Z,7.18
2019-02-03T12:55:30.733Z,7.03
2019-02-03T12:58:14.016Z,7.05
2019-02-03T13:01:16.075Z,6.97
2019-02-03T13:04:14.471Z,6.96
2019-02-03T13:10:24.332Z,6.85
2019-02-03T13:13:14.991Z,6.95
2019-02-03T13:15:58.699Z,6.84
2019-02-03T13:18:49.300Z,6.96
2019-02-03T13:24:25.850Z,6.75
2019-02-03T13:26:57.088Z,6.80
2019-02-03T13:29:28.306Z,6.83
2019-02-03T13:32:11.276Z,6.91
2019-02-03T13:35:01.840Z,6.82
2019-02-03T13:37:44.923Z,6.68
2019-02-03T13:40:35.579Z,6.52
2019-02-03T13:43:37.119Z,6.54
2019-02-03T13:48:53.271Z,6.35
2019-02-03T13:51:35.696Z,6.37
2019-02-03T13:54:26.349Z,6.38
2019-02-03T13:57:23.000Z,6.28
2019-02-03T14:00:34.134Z,6.28
2019-02-03T14:03:24.879Z,6.31
2019-02-03T14:05:56.380Z,6.29
2019-02-03T14:08:59.132Z,6.30
2019-02-03T14:11:32.168Z,6.30
2019-02-03T14:14:22.866Z,6.31
2019-02-03T14:19:38.026Z,6.22
2019-02-03T14:22:21.132Z,6.12
2019-02-03T14:25:23.287Z,6.08
2019-02-03T14:27:56.132Z,5.24
2019-02-03T14:30:46.963Z,6.02
2019-02-03T14:33:18.189Z,5.93
2019-02-03T14:36:03.176Z,5.96
2019-02-03T14:38:53.910Z,5.93
2019-02-03T14:41:44.531Z,5.88
2019-02-03T14:44:35.144Z,5.86
2019-02-03T14:47:25.753Z,5.85
2019-02-03T14:50:20.728Z,5.82
2019-02-03T14:55:56.274Z,5.85
2019-02-03T14:58:47.333Z,5.79
2019-02-03T15:07:03.352Z,5.74
2019-02-03T15:10:33.946Z,5.79
2019-02-03T15:13:24.862Z,5.76
2019-02-03T15:16:15.840Z,5.75
2019-02-03T15:19:06.428Z,5.70
2019-02-03T15:22:16.249Z,5.69
2019-02-03T15:27:57.489Z,5.67
2019-02-03T15:33:35.682Z,5.56
2019-02-03T15:36:26.441Z,5.58
2019-02-03T15:39:17.156Z,5.64
2019-02-03T15:42:08.043Z,5.54
2019-02-03T15:44:58.669Z,5.52
2019-02-03T15:47:49.246Z,5.48
2019-02-03T15:50:50.424Z,5.54
2019-02-03T15:53:23.501Z,5.49
2019-02-03T15:56:14.093Z,5.54
2019-02-03T15:59:04.888Z,5.49
2019-02-03T16:07:16.690Z,5.38
2019-02-03T16:09:47.915Z,5.37
2019-02-03T16:12:57.805Z,5.29
2019-02-03T16:15:39.894Z,5.26
2019-02-03T16:21:15.654Z,5.18
2019-02-03T16:24:25.205Z,5.12
2019-02-03T16:26:56.492Z,5.14
2019-02-03T16:29:27.697Z,5.11
2019-02-03T16:32:18.416Z,5.08
2019-02-03T16:35:20.670Z,5.01
2019-02-03T16:37:51.917Z,5.04
2019-02-03T16:40:42.931Z,4.93
2019-02-03T16:46:17.729Z,4.85
2019-02-03T16:49:08.306Z,4.78
2019-02-03T16:57:25.940Z,4.86
2019-02-03T17:00:18.014Z,4.74
2019-02-03T17:06:15.612Z,4.81
2019-02-03T17:09:39.300Z,4.83
2019-02-03T17:12:14.052Z,4.78
2019-02-03T17:14:53.343Z,4.84
2019-02-03T17:17:43.913Z,4.78
2019-02-03T17:20:26.716Z,4.75
2019-02-03T17:23:17.331Z,4.75
2019-02-03T17:26:20.003Z,4.73
2019-02-03T17:28:52.982Z,4.69
2019-02-03T17:31:43.622Z,4.62
2019-02-03T17:34:34.240Z,4.59
2019-02-03T17:40:15.664Z,4.58
2019-02-03T17:43:06.302Z,4.58
2019-02-03T17:46:16.209Z,4.55
2019-02-03T17:58:05.000Z,4.41
2019-02-03T18:03:44.568Z,4.31
2019-02-03T18:06:35.186Z,4.29
2019-02-03T18:09:12.850Z,4.22
2019-02-03T18:11:56.908Z,4.21
2019-02-03T18:17:14.625Z,4.16
2019-02-03T18:19:58.098Z,4.07
2019-02-03T18:23:20.947Z,4.07
2019-02-03T18:25:55.198Z,3.99
2019-02-03T18:28:46.163Z,4.01
2019-02-03T18:31:55.890Z,4.08
2019-02-03T18:34:48.977Z,4.08
2019-02-03T18:37:59.263Z,3.94
2019-02-03T18:40:49.937Z,4.03
2019-02-03T18:43:59.773Z,4.02
2019-02-03T18:46:50.382Z,3.99
2019-02-03T18:52:25.370Z,3.93
2019-02-03T18:55:27.615Z,3.94
2019-02-03T19:00:46.319Z,3.94
2019-02-03T19:03:38.582Z,3.87
2019-02-03T19:06:20.681Z,3.84
2019-02-03T19:09:22.321Z,3.79
2019-02-03T19:17:46.362Z,3.87
2019-02-03T19:20:31.045Z,3.80
2019-02-03T19:26:04.349Z,3.79
2019-02-03T19:28:55.202Z,3.79
2019-02-03T19:37:15.350Z,3.74
2019-02-03T19:40:18.597Z,3.79
2019-02-03T19:42:50.546Z,3.77
2019-02-03T19:45:53.206Z,3.71
2019-02-03T19:51:14.052Z,3.05
2019-02-03T19:54:04.551Z,3.69
2019-02-03T19:56:55.700Z,3.69
2019-02-03T19:59:47.134Z,3.68
2019-02-03T20:05:25.559Z,3.66
2019-02-03T20:11:03.533Z,3.71
2019-02-03T20:13:54.173Z,3.60
2019-02-03T20:16:44.817Z,3.69
2019-02-03T20:19:35.481Z,3.59
2019-02-03T20:22:20.125Z,3.63
2019-02-03T20:25:25.781Z,3.62
2019-02-03T20:31:06.784Z,3.56
2019-02-03T20:34:16.475Z,3.54
2019-02-03T20:40:58.123Z,3.58
2019-02-03T20:43:29.337Z,2.50
2019-02-03T20:46:15.642Z,3.42
2019-02-03T20:49:12.383Z,3.54
2019-02-03T20:57:12.865Z,3.45
2019-02-03T21:00:14.887Z,3.45
2019-02-03T21:08:38.039Z,3.43
2019-02-03T21:11:28.676Z,3.43
2019-02-03T21:14:19.248Z,3.46
2019-02-03T21:17:23.176Z,3.39
2019-02-03T21:19:56.960Z,3.39
2019-02-03T21:22:47.954Z,3.38
2019-02-03T21:28:22.026Z,3.37
2019-02-03T21:31:16.404Z,3.32
2019-02-03T21:36:32.069Z,3.33
2019-02-03T21:39:22.657Z,3.33
2019-02-03T21:44:56.955Z,3.22
2019-02-03T21:47:47.518Z,3.17
2019-02-03T21:50:38.200Z,3.22
2019-02-03T21:53:28.814Z,3.19
2019-02-03T21:59:25.765Z,3.17
2019-02-03T22:04:59.321Z,3.13
2019-02-03T22:07:49.923Z,3.18
2019-02-03T22:10:40.517Z,3.10
2019-02-03T22:19:39.940Z,2.91
2019-02-03T22:25:30.252Z,3.04
2019-02-03T22:28:21.114Z,3.05
2019-02-03T22:31:11.769Z,3.04
2019-02-03T22:34:02.827Z,3.07
2019-02-03T22:42:19.032Z,3.05
2019-02-03T22:45:00.319Z,2.99
2019-02-03T22:48:24.258Z,3.01
2019-02-03T22:50:58.267Z,2.98
2019-02-03T22:56:32.365Z,2.94
2019-02-03T22:59:35.183Z,3.08
2019-02-03T23:05:30.192Z,3.09
2019-02-03T23:10:44.122Z,3.08
2019-02-03T23:16:17.991Z,3.14
2019-02-03T23:19:12.796Z,3.10
2019-02-03T23:22:03.369Z,3.14
2019-02-03T23:24:41.643Z,3.08
2019-02-03T23:34:03.370Z,2.99
2019-02-03T23:39:38.429Z,2.96
2019-02-03T23:42:20.902Z,2.94
2019-02-03T23:45:23.380Z,2.96
2019-02-03T23:47:55.573Z,2.99
2019-02-03T23:50:46.138Z,2.96
2019-02-03T23:59:25.109Z,3.06
